Time;durP1;ratioP1;P1;durP2;ratioP2;P2;SDS_P1;SDS_P2;PMS_P1;PMS_P2;Temp;Humidity;BMP_temperature;BMP_pressure;BME280_temperature;BME280_humidity;BME280_pressure;Samples;Min_cycle;Max_cycle;Signal;HPM_P1;HPM_P2
2021/09/02 00:01:46;;;;;;;5.88;2.45;;;23.20;52.20;;;;;;6231311;28;20044;-81
2021/09/02 00:04:47;;;;;;;3.30;2.28;;;23.20;52.30;;;;;;6249023;28;20088;-81
2021/09/02 00:07:49;;;;;;;4.72;2.70;;;23.10;52.30;;;;;;6251140;28;20041;-79
2021/09/02 00:10:50;;;;;;;4.93;2.60;;;23.10;52.50;;;;;;6226802;28;20053;-80
2021/09/02 00:13:51;;;;;;;12.60;3.08;;;23.10;52.70;;;;;;6225481;28;20065;-80
2021/09/02 00:16:52;;;;;;;4.07;2.20;;;23.10;52.90;;;;;;6228059;28;20033;-78
2021/09/02 00:19:53;;;;;;;4.15;2.92;;;23.00;53.00;;;;;;6228455;28;20053;-80
2021/09/02 00:22:55;;;;;;;3.95;2.85;;;22.90;53.10;;;;;;6214295;28;20348;-79
2021/09/02 00:25:56;;;;;;;7.50;2.75;;;23.00;53.10;;;;;;6228635;28;20463;-80
2021/09/02 00:28:57;;;;;;;7.05;2.92;;;22.90;53.10;;;;;;6249164;28;20088;-80
2021/09/02 00:31:58;;;;;;;3.67;2.58;;;22.90;53.30;;;;;;6251076;28;20095;-80
2021/09/02 00:34:59;;;;;;;5.85;2.75;;;22.90;53.50;;;;;;6253913;28;20502;-80
2021/09/02 00:38:00;;;;;;;4.50;2.40;;;22.80;53.70;;;;;;6252215;28;20052;-81
2021/09/02 00:41:01;;;;;;;6.70;2.47;;;22.80;53.80;;;;;;6235925;28;20041;-80
2021/09/02 00:44:02;;;;;;;3.42;2.22;;;22.70;53.70;;;;;;6209352;28;20112;-80
2021/09/02 00:47:05;;;;;;;4.68;3.05;;;22.70;53.80;;;;;;6227352;28;20037;-80
2021/09/02 00:50:07;;;;;;;5.22;2.70;;;22.70;53.90;;;;;;6226942;28;20374;-80
2021/09/02 00:53:08;;;;;;;6.00;2.83;;;22.70;53.90;;;;;;6223813;28;20045;-80
2021/09/02 00:56:09;;;;;;;3.85;2.45;;;22.60;53.90;;;;;;6241009;28;20034;-80
2021/09/02 00:59:10;;;;;;;5.93;3.10;;;22.60;54.10;;;;;;6224775;28;20248;-81
2021/09/02 01:02:11;;;;;;;6.60;2.88;;;22.60;54.30;;;;;;6227532;28;20037;-81
2021/09/02 01:05:15;;;;;;;5.25;2.70;;;22.50;54.40;;;;;;6226607;28;20429;-81
2021/09/02 01:08:17;;;;;;;4.85;2.45;;;22.50;54.60;;;;;;6228144;28;20046;-80
2021/09/02 01:11:18;;;;;;;9.73;2.70;;;23.40;55.20;;;;;;6229596;28;20041;-80
2021/09/02 01:14:19;;;;;;;4.53;2.90;;;22.50;55.00;;;;;;6212338;28;20050;-81
2021/09/02 01:17:21;;;;;;;6.30;2.65;;;22.40;55.10;;;;;;6235127;28;20121;-82
2021/09/02 01:20:26;;;;;;;6.72;2.75;;;22.40;55.20;;;;;;6245088;28;20037;-80
2021/09/02 01:23:26;;;;;;;7.45;2.70;;;22.30;55.20;;;;;;6273307;28;20479;-80
2021/09/02 01:26:27;;;;;;;4.25;2.53;;;22.40;55.20;;;;;;6259325;28;20041;-81
2021/09/02 01:29:28;;;;;;;4.88;2.97;;;22.40;55.10;;;;;;6249281;28;20097;-80
2021/09/02 01:32:35;;;;;;;4.13;2.70;;;22.40;55.10;;;;;;6249108;28;20037;-80
2021/09/02 01:35:36;;;;;;;6.78;2.78;;;22.40;55.10;;;;;;6249208;28;20530;-80
2021/09/02 01:38:37;;;;;;;3.95;2.70;;;22.30;55.10;;;;;;6248992;28;20087;-80
2021/09/02 01:41:38;;;;;;;5.13;2.85;;;22.40;55.10;;;;;;6249713;28;20057;-79
2021/09/02 01:44:39;;;;;;;4.97;3.13;;;22.30;55.20;;;;;;6249749;28;20350;-79
2021/09/02 01:47:40;;;;;;;6.35;3.90;;;22.30;55.30;;;;;;6248239;28;20033;-79
2021/09/02 01:50:41;;;;;;;7.68;2.70;;;22.30;55.40;;;;;;6250077;28;20090;-80
2021/09/02 01:53:43;;;;;;;4.10;2.90;;;22.20;55.40;;;;;;6248817;28;20060;-81
2021/09/02 01:56:44;;;;;;;6.22;3.05;;;22.20;55.40;;;;;;6247870;28;20530;-80
2021/09/02 01:59:44;;;;;;;6.22;3.05;;;22.20;55.40;;;;;;6222240;28;20113;-81
2021/09/02 02:02:46;;;;;;;5.40;2.97;;;22.20;55.40;;;;;;6247860;28;20064;-81
2021/09/02 02:05:47;;;;;;;5.55;3.15;;;22.20;55.50;;;;;;6249021;28;20042;-81
2021/09/02 02:08:47;;;;;;;12.70;2.90;;;22.10;55.50;;;;;;6248919;28;20488;-81
2021/09/02 02:11:48;;;;;;;5.32;2.95;;;22.10;55.50;;;;;;6232096;28;20359;-81
2021/09/02 02:14:49;;;;;;;7.00;2.75;;;22.10;55.70;;;;;;6248316;28;20049;-80
2021/09/02 02:17:53;;;;;;;12.57;2.88;;;22.00;55.80;;;;;;6247053;28;20042;-81
2021/09/02 02:20:53;;;;;;;5.30;2.72;;;22.00;56.50;;;;;;6231999;28;20058;-80
2021/09/02 02:23:54;;;;;;;4.88;2.75;;;22.00;56.10;;;;;;6246046;28;20465;-80
2021/09/02 02:26:55;;;;;;;5.40;2.90;;;21.90;56.20;;;;;;6247608;28;20048;-79
2021/09/02 02:29:56;;;;;;;11.73;3.70;;;21.80;56.30;;;;;;6221907;28;20033;-80
2021/09/02 02:32:57;;;;;;;4.72;2.97;;;21.80;56.60;;;;;;6242094;28;20037;-79
2021/09/02 02:35:58;;;;;;;4.35;2.88;;;21.70;56.70;;;;;;6231459;28;20037;-81
2021/09/02 02:38:59;;;;;;;4.35;2.58;;;21.70;57.00;;;;;;6230414;28;20025;-81
2021/09/02 02:42:00;;;;;;;7.47;2.80;;;21.60;57.10;;;;;;6245852;28;20060;-81
2021/09/02 02:45:01;;;;;;;3.58;2.40;;;21.60;57.10;;;;;;6247692;28;20064;-80
2021/09/02 02:48:02;;;;;;;4.82;2.97;;;21.60;57.10;;;;;;6247828;28;20041;-80
2021/09/02 02:51:03;;;;;;;4.95;2.65;;;21.60;57.10;;;;;;6247587;28;20041;-79
2021/09/02 02:54:04;;;;;;;5.53;2.53;;;21.60;57.00;;;;;;6231103;28;20060;-80
2021/09/02 02:57:04;;;;;;;7.22;3.03;;;21.60;56.90;;;;;;6248632;28;20033;-80
2021/09/02 03:00:07;;;;;;;4.57;2.70;;;21.60;56.80;;;;;;6251246;28;20033;-80
2021/09/02 03:03:07;;;;;;;3.13;2.40;;;21.60;56.80;;;;;;6248117;28;20038;-80
2021/09/02 03:06:09;;;;;;;6.93;3.00;;;21.60;56.80;;;;;;6247142;28;20469;-80
2021/09/02 03:09:10;;;;;;;6.07;3.15;;;21.50;56.90;;;;;;6248371;28;20033;-80
2021/09/02 03:12:11;;;;;;;5.78;2.92;;;21.50;57.00;;;;;;6230903;28;20091;-80
2021/09/02 03:15:12;;;;;;;8.70;2.70;;;21.40;57.10;;;;;;6246886;28;20048;-80
2021/09/02 03:18:13;;;;;;;6.00;2.92;;;21.40;57.30;;;;;;6247082;28;20347;-80
2021/09/02 03:21:14;;;;;;;4.38;2.67;;;21.30;57.30;;;;;;6244426;28;20340;-80
2021/09/02 03:24:15;;;;;;;6.25;2.90;;;21.30;57.30;;;;;;6230052;28;20033;-80
2021/09/02 03:27:16;;;;;;;6.25;2.70;;;21.30;57.40;;;;;;6246690;28;20060;-81
2021/09/02 03:30:17;;;;;;;5.13;2.60;;;21.30;57.50;;;;;;6246055;28;20517;-80
2021/09/02 03:33:18;;;;;;;4.78;3.20;;;21.20;57.50;;;;;;6217019;28;20038;-80
2021/09/02 03:36:19;;;;;;;5.43;2.80;;;21.20;57.70;;;;;;6222297;28;20030;-80
2021/09/02 03:39:20;;;;;;;7.80;2.97;;;21.20;57.70;;;;;;6222497;28;20037;-80
2021/09/02 03:42:21;;;;;;;4.90;3.05;;;21.20;57.70;;;;;;6222136;28;20122;-80
2021/09/02 03:45:21;;;;;;;5.95;2.72;;;21.20;57.70;;;;;;6205104;28;20037;-80
2021/09/02 03:48:22;;;;;;;7.43;2.95;;;21.20;57.70;;;;;;6204825;28;20034;-80
2021/09/02 03:51:23;;;;;;;6.70;2.95;;;21.20;57.70;;;;;;6222796;28;20523;-80
2021/09/02 03:54:24;;;;;;;5.22;2.60;;;21.20;57.80;;;;;;6221887;28;20106;-80
2021/09/02 03:57:25;;;;;;;5.50;2.58;;;21.10;57.80;;;;;;6223681;28;20037;-80
2021/09/02 04:00:26;;;;;;;7.32;2.90;;;21.10;57.80;;;;;;6204907;28;20037;-80
2021/09/02 04:03:50;;;;;;;4.57;2.97;;;21.10;57.90;;;;;;6234781;28;20144;-80
2021/09/02 04:07:16;;;;;;;4.40;2.83;;;20.20;57.50;;;;;;6142766;28;20520;-80
2021/09/02 04:10:17;;;;;;;5.93;2.90;;;21.00;58.10;;;;;;6168528;28;20049;-80
2021/09/02 04:13:18;;;;;;;4.82;3.08;;;21.00;58.20;;;;;;6143170;28;20392;-80
2021/09/02 04:16:20;;;;;;;5.22;3.22;;;20.90;58.20;;;;;;6168300;28;20098;-80
2021/09/02 04:19:24;;;;;;;4.35;2.85;;;20.90;58.30;;;;;;6167397;28;20031;-81
2021/09/02 04:22:25;;;;;;;10.57;3.33;;;20.90;58.40;;;;;;6159979;28;20050;-79
2021/09/02 04:25:26;;;;;;;7.55;3.53;;;20.90;58.50;;;;;;6171012;28;20122;-81
2021/09/02 04:28:27;;;;;;;4.47;3.15;;;20.90;58.50;;;;;;6168374;28;20039;-79
2021/09/02 04:31:28;;;;;;;5.22;3.70;;;20.80;58.50;;;;;;6167201;28;20086;-80
2021/09/02 04:34:29;;;;;;;6.57;3.53;;;20.70;58.50;;;;;;6172180;28;20349;-81
2021/09/02 04:37:29;;;;;;;12.52;3.30;;;20.70;58.60;;;;;;6147198;28;20054;-82
2021/09/02 04:40:30;;;;;;;6.68;3.67;;;20.60;58.60;;;;;;6156357;28;20228;-81
2021/09/02 04:43:31;;;;;;;5.07;3.03;;;20.60;58.60;;;;;;6203163;28;20060;-81
2021/09/02 04:46:32;;;;;;;6.53;3.75;;;20.60;58.60;;;;;;6223139;28;20157;-80
2021/09/02 04:49:33;;;;;;;9.95;3.85;;;20.60;58.60;;;;;;6207194;28;20367;-81
2021/09/02 04:52:34;;;;;;;7.13;3.75;;;20.60;58.60;;;;;;6222080;28;20038;-80
2021/09/02 04:55:35;;;;;;;6.63;3.65;;;20.60;58.70;;;;;;6225340;28;20119;-81
2021/09/02 04:58:37;;;;;;;14.25;4.00;;;20.50;58.80;;;;;;6205047;28;20108;-81
2021/09/02 05:01:38;;;;;;;7.15;3.42;;;20.50;58.90;;;;;;6222430;28;20102;-81
2021/09/02 05:04:39;;;;;;;5.20;3.42;;;20.40;58.90;;;;;;6246590;28;20467;-80
2021/09/02 05:07:40;;;;;;;5.60;3.13;;;20.40;59.00;;;;;;6230569;28;20132;-81
2021/09/02 05:10:40;;;;;;;7.82;3.20;;;20.40;59.00;;;;;;6249802;28;20080;-81
2021/09/02 05:13:41;;;;;;;7.28;3.97;;;20.40;59.10;;;;;;6239288;28;20049;-80
2021/09/02 05:16:42;;;;;;;10.60;4.28;;;20.40;59.20;;;;;;6217741;28;20057;-80
2021/09/02 05:19:43;;;;;;;5.75;3.35;;;20.40;59.20;;;;;;6240187;28;20045;-80
2021/09/02 05:22:44;;;;;;;11.38;4.22;;;20.40;59.20;;;;;;6219596;28;20378;-81
2021/09/02 05:25:45;;;;;;;5.90;3.30;;;20.40;59.20;;;;;;6237643;28;20037;-79
2021/09/02 05:28:46;;;;;;;5.25;3.13;;;20.40;59.20;;;;;;6220898;28;20420;-80
2021/09/02 05:31:47;;;;;;;5.10;3.20;;;20.40;59.20;;;;;;6241700;28;21474;-82
2021/09/02 05:34:48;;;;;;;5.82;3.05;;;20.30;59.30;;;;;;6249819;28;22912;-84
2021/09/02 05:37:49;;;;;;;6.35;3.85;;;20.30;59.40;;;;;;6250127;28;20038;-83
2021/09/02 05:40:50;;;;;;;5.97;4.07;;;20.30;59.40;;;;;;6226678;28;20052;-81
2021/09/02 05:43:54;;;;;;;9.43;4.10;;;20.30;59.40;;;;;;6233244;28;20447;-79
2021/09/02 05:46:55;;;;;;;13.10;3.92;;;20.30;59.50;;;;;;6237664;28;22610;-82
2021/09/02 05:49:57;;;;;;;8.48;4.10;;;20.30;59.50;;;;;;6219856;28;20050;-81
2021/09/02 05:52:58;;;;;;;7.82;3.38;;;20.30;59.50;;;;;;6205597;28;20040;-79
2021/09/02 05:56:04;;;;;;;6.40;3.65;;;20.30;59.50;;;;;;6222616;28;20038;-80
2021/09/02 05:59:05;;;;;;;7.40;4.25;;;20.20;59.40;;;;;;6215938;28;20033;-80
2021/09/02 06:02:05;;;;;;;7.95;3.95;;;20.10;59.50;;;;;;6207936;28;20060;-80
2021/09/02 06:05:07;;;;;;;11.18;3.97;;;20.20;59.70;;;;;;6247725;28;20109;-79
2021/09/02 06:08:08;;;;;;;5.20;3.53;;;20.10;59.80;;;;;;6245063;28;20037;-78
2021/09/02 06:11:09;;;;;;;5.97;3.70;;;20.10;59.90;;;;;;6229722;28;20029;-78
2021/09/02 06:14:10;;;;;;;7.75;4.20;;;20.10;59.90;;;;;;6246516;28;20117;-78
2021/09/02 06:17:11;;;;;;;13.75;4.07;;;20.10;60.80;;;;;;6244173;28;20042;-79
2021/09/02 06:20:12;;;;;;;6.72;3.80;;;20.10;60.00;;;;;;6234456;28;20085;-79
2021/09/02 06:23:13;;;;;;;9.45;3.63;;;20.10;60.00;;;;;;6229639;28;20042;-78
2021/09/02 06:26:14;;;;;;;9.50;3.85;;;20.10;60.00;;;;;;6243283;28;20030;-79
2021/09/02 06:29:15;;;;;;;8.45;3.97;;;20.20;60.00;;;;;;6243620;28;20069;-78
2021/09/02 06:32:16;;;;;;;5.90;3.90;;;20.20;59.90;;;;;;6247154;28;20538;-79
2021/09/02 06:35:17;;;;;;;9.32;3.90;;;20.30;59.70;;;;;;6246077;28;20044;-79
2021/09/02 06:38:18;;;;;;;5.90;3.70;;;20.40;59.60;;;;;;6227202;28;20095;-78
2021/09/02 06:41:18;;;;;;;9.75;3.75;;;20.40;59.30;;;;;;6247838;28;20327;-79
2021/09/02 06:44:20;;;;;;;9.48;4.05;;;20.60;59.10;;;;;;6246459;28;20036;-79
2021/09/02 06:47:20;;;;;;;10.52;3.58;;;20.60;58.90;;;;;;6229068;28;20053;-78
2021/09/02 06:50:22;;;;;;;11.60;3.53;;;20.70;58.60;;;;;;6229862;28;20037;-79
2021/09/02 06:53:23;;;;;;;7.10;3.55;;;20.80;58.40;;;;;;6227347;28;20052;-79
2021/09/02 06:56:24;;;;;;;6.82;3.83;;;20.90;58.20;;;;;;6239724;28;20029;-78
2021/09/02 06:59:25;;;;;;;8.35;3.53;;;21.10;58.00;;;;;;6245139;28;20505;-78
2021/09/02 07:02:26;;;;;;;9.13;4.40;;;21.20;57.70;;;;;;6246801;28;20099;-79
2021/09/02 07:05:27;;;;;;;7.50;3.50;;;21.30;57.40;;;;;;6245757;28;20543;-79
2021/09/02 07:08:28;;;;;;;5.82;3.25;;;21.40;57.20;;;;;;6224603;28;20052;-79
2021/09/02 07:11:29;;;;;;;6.55;3.25;;;21.50;56.70;;;;;;6225049;28;20025;-79
2021/09/02 07:14:30;;;;;;;11.68;3.40;;;21.60;56.40;;;;;;6245321;28;20478;-79
2021/09/02 07:17:31;;;;;;;8.05;3.95;;;21.60;56.30;;;;;;6245782;28;20033;-79
2021/09/02 07:20:32;;;;;;;7.25;3.75;;;21.70;56.30;;;;;;6201351;28;20112;-79
2021/09/02 07:23:34;;;;;;;5.65;3.50;;;21.80;56.20;;;;;;6245510;28;20048;-80
2021/09/02 07:26:37;;;;;;;6.20;3.25;;;21.90;55.90;;;;;;6245668;28;20060;-80
2021/09/02 07:29:38;;;;;;;5.57;3.53;;;22.00;55.70;;;;;;6241830;28;20120;-79
2021/09/02 07:32:39;;;;;;;11.20;3.17;;;22.20;55.60;;;;;;6244541;28;20059;-80
2021/09/02 07:35:40;;;;;;;11.65;3.20;;;22.20;55.30;;;;;;6245609;28;20088;-80
2021/09/02 07:38:41;;;;;;;12.23;3.90;;;22.40;55.10;;;;;;6238889;28;20029;-81
2021/09/02 07:41:42;;;;;;;10.18;3.67;;;22.50;54.80;;;;;;6245976;28;20459;-81
2021/09/02 07:44:43;;;;;;;6.53;3.22;;;22.50;54.30;;;;;;6228623;28;20084;-80
2021/09/02 07:47:44;;;;;;;11.13;3.53;;;22.60;54.20;;;;;;6244204;28;20105;-79
2021/09/02 07:50:45;;;;;;;6.78;3.70;;;22.80;53.90;;;;;;6244438;28;20064;-79
2021/09/02 07:53:46;;;;;;;5.32;3.22;;;22.90;53.60;;;;;;6244551;28;20065;-80
2021/09/02 07:56:47;;;;;;;9.20;3.20;;;22.90;53.40;;;;;;6217306;28;20044;-79
2021/09/02 07:59:48;;;;;;;7.07;3.75;;;23.00;53.30;;;;;;6252262;28;20061;-78
2021/09/02 08:02:49;;;;;;;7.70;3.50;;;23.10;53.10;;;;;;6235871;28;20045;-80
2021/09/02 08:05:50;;;;;;;6.68;3.13;;;23.10;52.90;;;;;;6245700;28;20033;-79
2021/09/02 08:08:51;;;;;;;6.78;3.17;;;23.20;52.80;;;;;;6233056;28;20379;-81
2021/09/02 08:11:52;;;;;;;8.73;3.70;;;23.20;52.70;;;;;;6249961;28;20065;-79
2021/09/02 08:14:53;;;;;;;11.27;3.55;;;23.40;52.50;;;;;;6233863;28;20040;-79
2021/09/02 08:17:58;;;;;;;7.72;3.30;;;23.50;52.30;;;;;;6223827;28;20413;-80
2021/09/02 08:20:59;;;;;;;8.25;3.17;;;23.60;52.20;;;;;;6249852;28;20048;-80
2021/09/02 08:24:00;;;;;;;6.15;3.65;;;23.70;52.00;;;;;;6250533;28;20041;-80
2021/09/02 08:27:01;;;;;;;7.63;3.45;;;23.80;51.60;;;;;;6249318;28;20048;-81
2021/09/02 08:30:04;;;;;;;5.45;3.40;;;23.90;51.50;;;;;;6249476;28;20037;-81
2021/09/02 08:33:05;;;;;;;6.68;3.42;;;24.10;51.10;;;;;;6237721;28;20367;-79
2021/09/02 08:36:06;;;;;;;6.07;3.30;;;24.20;50.50;;;;;;6225402;28;20348;-80
2021/09/02 08:39:07;;;;;;;4.95;2.92;;;24.30;50.10;;;;;;6198795;28;20037;-79
2021/09/02 08:42:08;;;;;;;8.70;3.47;;;24.30;50.10;;;;;;6224206;28;20112;-79
2021/09/02 08:45:09;;;;;;;4.22;2.85;;;24.50;50.00;;;;;;6225403;28;20125;-79
2021/09/02 08:48:10;;;;;;;8.00;3.47;;;24.60;49.60;;;;;;6226044;28;20034;-78
2021/09/02 08:51:12;;;;;;;9.93;3.15;;;24.80;49.30;;;;;;6227581;28;20045;-78
2021/09/02 08:54:13;;;;;;;5.72;3.10;;;24.90;49.00;;;;;;6227709;28;20037;-79
2021/09/02 08:57:15;;;;;;;5.00;3.00;;;25.10;48.70;;;;;;6242024;28;20138;-79
2021/09/02 09:00:17;;;;;;;12.70;5.45;;;25.10;48.50;;;;;;6208603;28;20026;-79
2021/09/02 09:03:19;;;;;;;7.05;3.05;;;25.30;48.50;;;;;;6237770;28;20367;-80
2021/09/02 09:06:30;;;;;;;16.30;5.82;;;25.40;48.00;;;;;;6249679;28;20025;-81
2021/09/02 09:09:32;;;;;;;8.73;3.15;;;25.50;47.90;;;;;;6230664;28;20108;-79
2021/09/02 09:12:42;;;;;;;10.25;5.15;;;25.60;47.70;;;;;;6250045;28;20362;-79
2021/09/02 09:15:45;;;;;;;6.93;3.60;;;25.60;47.60;;;;;;6248801;28;20046;-80
2021/09/02 09:18:46;;;;;;;10.43;5.30;;;25.80;47.50;;;;;;6248628;28;20045;-79
2021/09/02 09:21:59;;;;;;;13.57;5.47;;;25.90;47.10;;;;;;6249425;28;20038;-80
2021/09/02 09:25:08;;;;;;;5.00;3.03;;;26.00;46.80;;;;;;6232558;28;20331;-80
2021/09/02 09:28:09;;;;;;;5.63;2.90;;;26.10;46.70;;;;;;6249475;28;20635;-79
2021/09/02 09:31:24;;;;;;;6.93;4.28;;;26.30;46.40;;;;;;6248305;28;20037;-80
2021/09/02 09:34:27;;;;;;;15.57;5.18;;;26.40;46.80;;;;;;6232158;28;20055;-79
2021/09/02 09:37:28;;;;;;;6.13;3.85;;;26.50;46.10;;;;;;6251905;28;20109;-80
2021/09/02 09:40:29;;;;;;;7.30;4.22;;;26.60;46.00;;;;;;6249072;28;20045;-79
2021/09/02 09:43:30;;;;;;;17.10;7.57;;;26.60;45.90;;;;;;6249576;28;20041;-81
2021/09/02 09:46:33;;;;;;;25.13;9.82;;;26.70;45.90;;;;;;6247218;28;20515;-80
2021/09/02 09:49:57;;;;;;;23.50;9.10;;;26.70;45.40;;;;;;6234491;28;20458;-81
2021/09/02 09:52:58;;;;;;;6.78;4.50;;;26.70;45.00;;;;;;6245371;28;20041;-80
2021/09/02 09:55:59;;;;;;;7.38;3.30;;;26.60;44.90;;;;;;6249977;28;20419;-79
2021/09/02 09:59:02;;;;;;;9.70;3.22;;;26.70;45.20;;;;;;6246091;28;20041;-81
2021/09/02 10:02:05;;;;;;;7.15;3.63;;;26.70;45.00;;;;;;6227391;28;20037;-80
2021/09/02 10:05:08;;;;;;;12.85;3.05;;;26.70;44.90;;;;;;6247486;28;20501;-80
2021/09/02 10:08:09;;;;;;;6.00;3.75;;;26.80;44.90;;;;;;6245389;28;20053;-80
2021/09/02 10:11:13;;;;;;;14.35;3.20;;;26.90;44.80;;;;;;6247425;28;20038;-81
2021/09/02 10:14:15;;;;;;;8.50;4.68;;;26.90;44.40;;;;;;6245359;28;20030;-80
2021/09/02 10:17:16;;;;;;;16.10;7.70;;;27.00;44.30;;;;;;6246828;28;20033;-79
2021/09/02 10:20:24;;;;;;;15.27;5.68;;;27.00;44.40;;;;;;6226989;28;20476;-80
2021/09/02 10:23:25;;;;;;;10.32;4.78;;;27.10;44.40;;;;;;6247815;28;20053;-80
2021/09/02 10:26:34;;;;;;;18.88;9.50;;;27.30;44.10;;;;;;6229366;28;20055;-79
2021/09/02 10:29:37;;;;;;;9.60;5.00;;;27.40;43.70;;;;;;6245125;28;20474;-79
2021/09/02 10:32:38;;;;;;;15.82;6.65;;;27.50;43.30;;;;;;6247616;28;20359;-82
2021/09/02 10:35:39;;;;;;;7.57;3.67;;;27.60;43.40;;;;;;6233312;28;20033;-83
2021/09/02 10:38:53;;;;;;;16.90;7.50;;;27.70;43.50;;;;;;6231368;28;20043;-84
2021/09/02 10:41:54;;;;;;;15.93;5.32;;;28.00;43.00;;;;;;6246974;28;20048;-80
2021/09/02 10:44:55;;;;;;;9.02;5.05;;;28.30;42.10;;;;;;6249665;28;20097;-81
2021/09/02 10:47:57;;;;;;;11.23;5.28;;;28.50;41.60;;;;;;6249277;28;20030;-82
2021/09/02 10:50:58;;;;;;;17.13;8.52;;;28.80;41.30;;;;;;6230766;28;20078;-78
2021/09/02 10:54:03;;;;;;;16.42;6.93;;;29.20;40.60;;;;;;6245855;28;20367;-80
2021/09/02 10:57:07;;;;;;;5.30;3.55;;;29.60;40.30;;;;;;6245794;28;20037;-81
2021/09/02 11:00:32;;;;;;;17.15;6.97;;;30.10;39.80;;;;;;6246568;28;20037;-82
2021/09/02 11:03:39;;;;;;;13.60;6.18;;;30.40;38.90;;;;;;6213318;28;20041;-80
2021/09/02 11:06:49;;;;;;;18.13;6.50;;;30.80;38.60;;;;;;6228022;28;20045;-80
2021/09/02 11:09:50;;;;;;;5.60;3.17;;;31.00;38.00;;;;;;6243293;28;20096;-80
2021/09/02 11:13:02;;;;;;;4.63;2.88;;;31.10;37.90;;;;;;6249253;28;20033;-81
2021/09/02 11:16:10;;;;;;;9.05;3.83;;;31.10;37.10;;;;;;6228151;28;20463;-82
2021/09/02 11:19:11;;;;;;;15.98;7.45;;;31.10;36.90;;;;;;6245336;28;20033;-81
2021/09/02 11:22:18;;;;;;;9.18;4.03;;;31.30;36.80;;;;;;6245724;28;20041;-80
2021/09/02 11:25:19;;;;;;;5.60;3.20;;;31.50;36.60;;;;;;6226606;28;20522;-83
2021/09/02 11:28:22;;;;;;;7.72;3.10;;;31.60;36.40;;;;;;6243101;28;20060;-83
2021/09/02 11:31:23;;;;;;;10.05;3.45;;;31.90;36.40;;;;;;6252418;28;20064;-81
2021/09/02 11:34:24;;;;;;;5.63;3.10;;;32.10;35.90;;;;;;6245207;28;20057;-83
2021/09/02 11:37:39;;;;;;;9.15;3.33;;;32.30;35.50;;;;;;6240177;28;20056;-81
2021/09/02 11:40:41;;;;;;;7.32;4.00;;;32.50;35.00;;;;;;6227456;28;20056;-80
2021/09/02 11:43:42;;;;;;;9.60;4.35;;;32.70;34.40;;;;;;6234305;28;20124;-81
2021/09/02 11:46:43;;;;;;;6.97;4.30;;;32.70;34.40;;;;;;6251083;28;20458;-81
2021/09/02 11:49:58;;;;;;;9.35;3.53;;;32.90;34.10;;;;;;6250137;28;20435;-81
2021/09/02 11:52:59;;;;;;;7.68;3.83;;;33.30;33.60;;;;;;6249323;28;20090;-80
2021/09/02 11:56:11;;;;;;;2.88;2.47;;;33.60;33.00;;;;;;6248193;28;20038;-80
2021/09/02 11:59:12;;;;;;;4.63;2.78;;;33.90;32.50;;;;;;6247951;28;20440;-81
2021/09/02 12:02:14;;;;;;;6.70;3.20;;;34.10;32.30;;;;;;6246694;28;20076;-80
2021/09/02 12:05:19;;;;;;;5.47;2.65;;;34.30;31.70;;;;;;6231265;28;20037;-81
2021/09/02 12:08:20;;;;;;;7.60;2.72;;;34.50;31.30;;;;;;6231065;28;20029;-81
2021/09/02 12:11:23;;;;;;;4.55;2.75;;;34.50;31.00;;;;;;6232091;28;20029;-80
2021/09/02 12:14:27;;;;;;;3.20;2.55;;;34.50;30.90;;;;;;6231035;28;20044;-81
2021/09/02 12:17:34;;;;;;;4.75;2.35;;;34.50;30.70;;;;;;6245284;28;20106;-81
2021/09/02 12:20:38;;;;;;;8.38;3.05;;;34.80;30.70;;;;;;6251530;28;20060;-81
2021/09/02 12:23:44;;;;;;;7.82;2.63;;;35.20;30.10;;;;;;6245417;28;20124;-81
2021/09/02 12:26:58;;;;;;;5.10;2.35;;;35.70;29.80;;;;;;6231884;28;20159;-81
2021/09/02 12:29:59;;;;;;;5.53;2.95;;;35.90;29.40;;;;;;6247706;28;20124;-82
2021/09/02 12:33:16;;;;;;;8.68;3.03;;;36.10;29.10;;;;;;6248093;28;20043;-81
2021/09/02 12:36:18;;;;;;;4.63;2.50;;;36.40;28.90;;;;;;6231385;28;20367;-81
2021/09/02 12:39:23;;;;;;;5.25;2.80;;;36.60;28.40;;;;;;6247774;28;20064;-80
2021/09/02 12:42:26;;;;;;;5.43;2.80;;;36.30;28.60;;;;;;6237711;28;20504;-80
2021/09/02 12:45:27;;;;;;;6.03;2.55;;;36.00;29.00;;;;;;6261825;28;20455;-80
2021/09/02 12:48:28;;;;;;;3.72;2.70;;;35.90;29.20;;;;;;6231162;28;20099;-80
2021/09/02 12:51:29;;;;;;;10.10;3.60;;;35.70;29.30;;;;;;6231216;28;20053;-81
2021/09/02 12:55:01;;;;;;;7.47;2.60;;;35.70;29.30;;;;;;6245932;28;20048;-81
2021/09/02 12:58:06;;;;;;;4.45;2.50;;;35.70;29.10;;;;;;6226549;28;20083;-81
2021/09/02 13:01:07;;;;;;;6.15;2.92;;;35.70;29.00;;;;;;6243032;28;20044;-81
2021/09/02 13:04:08;;;;;;;8.05;2.88;;;35.80;28.90;;;;;;6253066;28;20029;-80
2021/09/02 13:07:09;;;;;;;5.55;2.60;;;35.70;29.00;;;;;;6245070;28;20363;-80
2021/09/02 13:10:11;;;;;;;15.02;2.78;;;35.90;29.00;;;;;;6245967;28;20037;-81
2021/09/02 13:13:12;;;;;;;6.22;2.85;;;37.30;28.00;;;;;;6217684;28;20083;-81
2021/09/02 13:16:13;;;;;;;6.38;2.47;;;38.50;26.90;;;;;;6243503;28;20443;-81
2021/09/02 13:19:14;;;;;;;8.00;2.95;;;39.80;25.70;;;;;;6243161;28;20045;-81
2021/09/02 13:22:15;;;;;;;7.35;2.47;;;41.00;24.70;;;;;;6240396;28;20049;-81
2021/09/02 13:25:18;;;;;;;6.57;2.50;;;42.00;23.80;;;;;;6243303;28;20041;-81
2021/09/02 13:28:18;;;;;;;6.70;2.20;;;42.90;22.50;;;;;;6227156;28;20064;-81
2021/09/02 13:31:19;;;;;;;6.35;2.22;;;43.40;21.80;;;;;;6244415;28;20037;-80
2021/09/02 13:34:20;;;;;;;7.55;2.08;;;43.50;21.60;;;;;;6241525;28;20478;-80
2021/09/02 13:37:21;;;;;;;8.13;2.70;;;43.60;21.40;;;;;;6227754;28;20033;-81
2021/09/02 13:40:22;;;;;;;3.55;1.80;;;43.80;21.10;;;;;;6236600;28;20044;-80
2021/09/02 13:43:23;;;;;;;8.45;2.50;;;43.90;20.70;;;;;;6245529;28;20041;-81
2021/09/02 13:46:24;;;;;;;4.40;2.38;;;44.10;20.50;;;;;;6239629;28;20350;-81
2021/09/02 13:49:26;;;;;;;5.18;2.15;;;43.90;20.60;;;;;;6242696;28;20029;-81
2021/09/02 13:52:35;;;;;;;5.57;2.00;;;43.60;20.60;;;;;;6241314;28;20470;-81
2021/09/02 13:55:37;;;;;;;3.15;1.98;;;43.50;20.60;;;;;;6225558;28;20045;-80
2021/09/02 13:58:39;;;;;;;8.05;2.28;;;43.20;20.70;;;;;;6242994;28;20033;-79
2021/09/02 14:01:40;;;;;;;3.47;1.90;;;42.30;21.30;;;;;;6241907;28;20480;-80
2021/09/02 14:04:42;;;;;;;3.88;1.85;;;41.30;22.00;;;;;;6242269;28;20029;-80
2021/09/02 14:07:43;;;;;;;2.65;2.05;;;40.00;22.70;;;;;;6243511;28;20048;-79
2021/09/02 14:10:44;;;;;;;5.30;2.00;;;38.80;23.70;;;;;;6245240;28;20403;-80
2021/09/02 14:13:45;;;;;;;5.70;3.30;;;37.80;24.70;;;;;;6244315;28;20044;-79
2021/09/02 14:16:46;;;;;;;3.85;2.60;;;37.00;25.60;;;;;;6227918;28;20034;-78
2021/09/02 14:19:47;;;;;;;3.00;2.28;;;36.30;26.20;;;;;;6244819;28;20045;-79
2021/09/02 14:22:48;;;;;;;9.45;2.55;;;35.80;26.70;;;;;;6245785;28;20432;-80
2021/09/02 14:25:50;;;;;;;9.43;2.47;;;35.30;27.40;;;;;;6244840;28;20051;-79
2021/09/02 14:28:53;;;;;;;7.93;2.63;;;34.80;27.80;;;;;;6226660;28;20045;-79
2021/09/02 14:31:53;;;;;;;4.93;2.40;;;34.50;28.30;;;;;;6224407;28;20102;-80
2021/09/02 14:34:54;;;;;;;6.57;2.42;;;34.10;28.70;;;;;;6248570;28;20037;-79
2021/09/02 14:37:55;;;;;;;5.95;2.40;;;33.90;29.10;;;;;;6245061;28;20033;-78
2021/09/02 14:40:56;;;;;;;3.15;2.13;;;33.70;29.40;;;;;;6244316;28;20040;-81
2021/09/02 14:43:57;;;;;;;2.85;2.10;;;33.60;29.70;;;;;;6243836;28;20424;-80
2021/09/02 14:47:01;;;;;;;4.25;2.05;;;33.60;29.80;;;;;;6245025;28;20042;-80
2021/09/02 14:50:02;;;;;;;5.13;1.90;;;33.50;30.00;;;;;;6244170;28;20045;-79
2021/09/02 14:53:04;;;;;;;4.15;2.63;;;33.60;30.00;;;;;;6226670;28;20109;-80
2021/09/02 14:56:05;;;;;;;5.55;2.22;;;33.40;30.20;;;;;;6227973;28;20083;-81
2021/09/02 14:59:06;;;;;;;3.83;2.38;;;33.40;30.60;;;;;;6245139;28;20391;-81
2021/09/02 15:02:08;;;;;;;3.42;2.20;;;33.20;30.90;;;;;;6237954;28;20067;-81
2021/09/02 15:05:10;;;;;;;4.63;2.33;;;33.10;31.20;;;;;;6214248;28;20371;-79
2021/09/02 15:08:11;;;;;;;4.60;2.05;;;32.90;31.50;;;;;;6220008;28;20367;-79
2021/09/02 15:11:12;;;;;;;3.05;2.13;;;32.80;31.80;;;;;;6224971;28;20473;-79
2021/09/02 15:14:13;;;;;;;5.60;2.53;;;32.70;31.90;;;;;;6200700;28;20040;-80
2021/09/02 15:17:14;;;;;;;13.05;2.58;;;32.50;32.10;;;;;;6217848;28;20131;-79
2021/09/02 15:20:15;;;;;;;2.97;2.17;;;32.50;32.50;;;;;;6220224;28;20057;-80
2021/09/02 15:23:16;;;;;;;5.47;2.53;;;32.40;32.80;;;;;;6220090;28;20450;-81
2021/09/02 15:26:17;;;;;;;4.60;2.65;;;32.20;33.30;;;;;;6219412;28;20038;-79
2021/09/02 15:29:18;;;;;;;5.82;2.60;;;32.00;33.80;;;;;;6201105;28;20049;-79
2021/09/02 15:32:20;;;;;;;4.72;2.50;;;31.90;33.90;;;;;;6224122;28;20064;-80
2021/09/02 15:35:21;;;;;;;6.22;2.47;;;31.90;33.50;;;;;;6242868;28;20052;-78
2021/09/02 15:38:22;;;;;;;3.50;2.33;;;32.00;33.60;;;;;;6241433;28;25164;-80
2021/09/02 15:41:24;;;;;;;9.73;1.95;;;32.00;33.60;;;;;;6242201;28;20033;-79
2021/09/02 15:44:25;;;;;;;4.38;2.25;;;32.00;33.80;;;;;;6225600;28;20041;-79
2021/09/02 15:47:27;;;;;;;6.22;2.80;;;32.00;34.00;;;;;;6244702;28;20036;-78